CPX404 Details

Departure: Nashville International Airport (KBNA)
Arrival: Louis Armstrong New Orleans International Airport (KMSY)
Route: LBY MEI IGB HRTUN CHSNE2


Current Weather Information
KBNA 190753Z 00000KT 10SM CLR 01/M04 A3038 RMK AO2 SLP289 T00061044
KMSY 190753Z 06006KT 10SM BKN250 14/05 A3024 RMK AO2 SLP243 T01390050